Kezdőlap
METAR-TAF:

METAR-TAF

Repülőterek :

Lüderitz, Namíbia

földrajzi szélesség: 26-41S, földrajzi hosszúság: 015-15E, magasság: 130 m

Jelenlegi meteorológiai megfigyelések

A jelentés 57 perccel ezelõtt készült, 04:00 UTC
Hőmérséklet 13°C
Páratartalom 77%
Légköri nyomás 1016 hPa

METAR: FYLZ 260400Z AUTO /////KT //// // ////// 13/09 Q1016

Idő: 06:57 (04:57 UTC)

Előrejelzés

A jelentés 2 órával és 57 perccel ezelõtt készült, 02:00 UTC
Az előrejelzés 26-én 03 óra UTC és 26-én 12 óra UTC között érvényes
Dél-délkeleti szél 12 kt
Látótávolság 10 km, vagy több
felhőtlen 1500 m magasságban, és nincs gomolyfelhõ
26-én 09 óra UTC és 26-én 11 óra UTC között fokozatosan kialakuló
Déli szél 10 kt széllökések: 20 kt

TAF: FYLZ 260200Z 2603/2612 15012KT CAVOK BECMG 2609/2611 17010G20KT

Meteorológiai megfigyelések és előrejelzések több, mint 4000 repülőtéren (METAR és TAF jelentéseket).

A térképen piros és sárga pontok jelzik az elérhető meteorológiai állomásokat.

Mozgassa az egeret a pont fölött, hogy megjelenjen az állomás neve.

Azután kattintson az időjárási megfigyelések és előrejelzések megtekintéséhez.

A térkép megváltoztatása: kattintson a fekete keresztel jelölt zöld gombra ráközelítéshez, a vonallal jelölt zöld gombra távolításhoz, vagy a zöld nyilakra a szomszédos térképek eléréséhez.


METAR-TAF: